sensor_id;sensor_type;location;lat;lon;timestamp;pressure;altitude;pressure_sealevel;temperature;humidity
65359;BME280;52491;45.900;6.346;2023-08-07T00:00:36;94204.84;;;26.26;35.29
65359;BME280;52491;45.900;6.346;2023-08-07T00:03:02;94201.38;;;26.25;35.30
65359;BME280;52491;45.900;6.346;2023-08-07T00:05:28;94202.97;;;26.26;35.22
65359;BME280;52491;45.900;6.346;2023-08-07T00:07:54;94205.38;;;26.28;35.27
65359;BME280;52491;45.900;6.346;2023-08-07T00:10:19;94200.28;;;26.26;35.40
65359;BME280;52491;45.900;6.346;2023-08-07T00:12:45;94198.41;;;26.27;35.12
65359;BME280;52491;45.900;6.346;2023-08-07T00:15:11;94190.41;;;26.27;35.29
65359;BME280;52491;45.900;6.346;2023-08-07T00:17:37;94191.47;;;26.26;35.44
65359;BME280;52491;45.900;6.346;2023-08-07T00:20:04;94194.16;;;26.26;34.91
65359;BME280;52491;45.900;6.346;2023-08-07T00:22:29;94185.34;;;26.25;35.00
65359;BME280;52491;45.900;6.346;2023-08-07T00:24:55;94189.88;;;26.25;34.99
65359;BME280;52491;45.900;6.346;2023-08-07T00:27:20;94189.09;;;26.24;34.80
65359;BME280;52491;45.900;6.346;2023-08-07T00:29:46;94189.88;;;26.25;35.44
65359;BME280;52491;45.900;6.346;2023-08-07T00:32:12;94184.00;;;26.23;35.02
65359;BME280;52491;45.900;6.346;2023-08-07T00:34:37;94182.13;;;26.23;34.84
65359;BME280;52491;45.900;6.346;2023-08-07T00:37:03;94182.91;;;26.24;35.27
65359;BME280;52491;45.900;6.346;2023-08-07T00:39:29;94182.91;;;26.24;34.85
65359;BME280;52491;45.900;6.346;2023-08-07T00:41:54;94184.00;;;26.23;34.91
65359;BME280;52491;45.900;6.346;2023-08-07T00:44:20;94184.78;;;26.23;34.84
65359;BME280;52491;45.900;6.346;2023-08-07T00:46:46;94180.25;;;26.24;34.73
65359;BME280;52491;45.900;6.346;2023-08-07T00:49:12;94181.31;;;26.23;35.25
65359;BME280;52491;45.900;6.346;2023-08-07T00:51:39;94170.63;;;26.23;34.85
65359;BME280;52491;45.900;6.346;2023-08-07T00:54:05;94169.03;;;26.22;35.15
65359;BME280;52491;45.900;6.346;2023-08-07T00:56:33;94171.72;;;26.22;35.00
65359;BME280;52491;45.900;6.346;2023-08-07T00:58:59;94167.41;;;26.21;34.98
65359;BME280;52491;45.900;6.346;2023-08-07T01:01:26;94176.22;;;26.21;35.08
65359;BME280;52491;45.900;6.346;2023-08-07T01:03:51;94179.72;;;26.22;35.06
65359;BME280;52491;45.900;6.346;2023-08-07T01:06:17;94178.91;;;26.21;34.60
65359;BME280;52491;45.900;6.346;2023-08-07T01:08:43;94176.50;;;26.20;34.97
65359;BME280;52491;45.900;6.346;2023-08-07T01:16:31;94171.97;;;26.20;34.53
65359;BME280;52491;45.900;6.346;2023-08-07T01:19:01;94175.72;;;26.19;34.94
65359;BME280;52491;45.900;6.346;2023-08-07T01:21:28;94170.38;;;26.19;35.00
65359;BME280;52491;45.900;6.346;2023-08-07T01:23:54;94176.50;;;26.20;34.98
65359;BME280;52491;45.900;6.346;2023-08-07T01:26:20;94174.91;;;26.19;34.89
65359;BME280;52491;45.900;6.346;2023-08-07T01:28:52;94179.97;;;26.20;34.62
65359;BME280;52491;45.900;6.346;2023-08-07T01:31:22;94176.50;;;26.20;34.42
65359;BME280;52491;45.900;6.346;2023-08-07T01:33:57;94178.09;;;26.21;34.52
65359;BME280;52491;45.900;6.346;2023-08-07T01:36:27;94172.75;;;26.21;34.88
65359;BME280;52491;45.900;6.346;2023-08-07T01:38:55;94171.16;;;26.20;34.88
65359;BME280;52491;45.900;6.346;2023-08-07T01:41:21;94174.91;;;26.19;34.76
65359;BME280;52491;45.900;6.346;2023-08-07T01:43:47;94178.09;;;26.21;34.43
65359;BME280;52491;45.900;6.346;2023-08-07T01:46:12;94175.44;;;26.21;34.59
65359;BME280;52491;45.900;6.346;2023-08-07T01:48:38;94170.38;;;26.19;34.83
65359;BME280;52491;45.900;6.346;2023-08-07T01:51:04;94165.81;;;26.20;34.76
65359;BME280;52491;45.900;6.346;2023-08-07T01:53:29;94168.75;;;26.18;34.41
65359;BME280;52491;45.900;6.346;2023-08-07T01:55:55;94165.03;;;26.19;34.86
65359;BME280;52491;45.900;6.346;2023-08-07T01:58:20;94174.91;;;26.19;34.64
65359;BME280;52491;45.900;6.346;2023-08-07T02:00:46;94172.25;;;26.19;34.60
65359;BME280;52491;45.900;6.346;2023-08-07T02:03:11;94174.91;;;26.19;34.47
65359;BME280;52491;45.900;6.346;2023-08-07T02:05:37;94182.94;;;26.19;34.22
65359;BME280;52491;45.900;6.346;2023-08-07T02:08:03;94187.44;;;26.18;34.64
65359;BME280;52491;45.900;6.346;2023-08-07T02:10:28;94186.66;;;26.18;34.59
65359;BME280;52491;45.900;6.346;2023-08-07T02:12:57;94188.53;;;26.17;34.53
65359;BME280;52491;45.900;6.346;2023-08-07T02:15:24;94187.75;;;26.17;34.73
65359;BME280;52491;45.900;6.346;2023-08-07T02:17:50;94194.13;;;26.16;34.22
65359;BME280;52491;45.900;6.346;2023-08-07T02:20:15;94187.75;;;26.17;34.53
65359;BME280;52491;45.900;6.346;2023-08-07T02:22:41;94193.09;;;26.17;34.29
65359;BME280;52491;45.900;6.346;2023-08-07T02:25:07;94193.09;;;26.17;34.26
65359;BME280;52491;45.900;6.346;2023-08-07T02:27:32;94178.94;;;26.16;34.49
65359;BME280;52491;45.900;6.346;2023-08-07T02:29:58;94172.75;;;26.16;34.34
65359;BME280;52491;45.900;6.346;2023-08-07T02:32:24;94177.31;;;26.15;34.29
65359;BME280;52491;45.900;6.346;2023-08-07T02:34:49;94177.59;;;26.14;34.17
65359;BME280;52491;45.900;6.346;2023-08-07T02:37:15;94180.25;;;26.14;34.61
65359;BME280;52491;45.900;6.346;2023-08-07T02:39:42;94174.09;;;26.13;34.35
65359;BME280;52491;45.900;6.346;2023-08-07T02:42:07;94182.94;;;26.14;34.33
65359;BME280;52491;45.900;6.346;2023-08-07T02:44:33;94178.41;;;26.24;34.28
65359;BME280;52491;45.900;6.346;2023-08-07T02:46:58;94180.78;;;26.26;33.97
65359;BME280;52491;45.900;6.346;2023-08-07T02:49:24;94177.03;;;26.27;34.06
65359;BME280;52491;45.900;6.346;2023-08-07T02:51:49;94180.53;;;26.27;34.10
65359;BME280;52491;45.900;6.346;2023-08-07T02:54:15;94180.53;;;26.27;33.78
65359;BME280;52491;45.900;6.346;2023-08-07T02:56:41;94192.03;;;26.28;33.74
65359;BME280;52491;45.900;6.346;2023-08-07T02:59:06;94194.69;;;26.28;33.73
65359;BME280;52491;45.900;6.346;2023-08-07T03:01:32;94189.34;;;26.28;33.97
65359;BME280;52491;45.900;6.346;2023-08-07T03:03:57;94196.56;;;26.27;33.95
65359;BME280;52491;45.900;6.346;2023-08-07T03:06:23;94192.03;;;26.28;33.81
65359;BME280;52491;45.900;6.346;2023-08-07T03:08:49;94192.03;;;26.28;33.86
65359;BME280;52491;45.900;6.346;2023-08-07T03:11:14;94190.94;;;26.29;33.77
65359;BME280;52491;45.900;6.346;2023-08-07T03:13:40;94190.94;;;26.29;33.74
65359;BME280;52491;45.900;6.346;2023-08-07T03:16:07;94192.81;;;26.28;33.85
65359;BME280;52491;45.900;6.346;2023-08-07T03:18:33;94191.75;;;26.29;33.72
65359;BME280;52491;45.900;6.346;2023-08-07T03:20:59;94187.22;;;26.30;33.66
65359;BME280;52491;45.900;6.346;2023-08-07T03:23:27;94187.22;;;26.30;33.88
65359;BME280;52491;45.900;6.346;2023-08-07T03:26:04;94188.00;;;26.30;33.95
65359;BME280;52491;45.900;6.346;2023-08-07T03:28:30;94187.22;;;26.30;33.93
65359;BME280;52491;45.900;6.346;2023-08-07T03:30:56;94190.94;;;26.29;33.85
65359;BME280;52491;45.900;6.346;2023-08-07T03:33:22;94187.22;;;26.30;33.73
65359;BME280;52491;45.900;6.346;2023-08-07T03:35:47;94183.72;;;26.29;33.45
65359;BME280;52491;45.900;6.346;2023-08-07T03:38:13;94174.91;;;26.29;33.61
65359;BME280;52491;45.900;6.346;2023-08-07T03:40:38;94179.47;;;26.28;33.89
65359;BME280;52491;45.900;6.346;2023-08-07T03:43:04;94184.81;;;26.28;33.46
65359;BME280;52491;45.900;6.346;2023-08-07T03:45:29;94180.25;;;26.29;33.63
65359;BME280;52491;45.900;6.346;2023-08-07T03:47:55;94178.66;;;26.28;33.66
65359;BME280;52491;45.900;6.346;2023-08-07T03:50:21;94170.63;;;26.28;33.57
65359;BME280;52491;45.900;6.346;2023-08-07T03:52:46;94184.81;;;26.28;33.80
65359;BME280;52491;45.900;6.346;2023-08-07T03:55:12;94183.22;;;26.27;33.79
65359;BME280;52491;45.900;6.346;2023-08-07T03:57:37;94177.88;;;26.27;33.67
65359;BME280;52491;45.900;6.346;2023-08-07T04:00:03;94178.94;;;26.16;34.11
65359;BME280;52491;45.900;6.346;2023-08-07T04:02:29;94186.41;;;26.14;33.85
65359;BME280;52491;45.900;6.346;2023-08-07T04:04:55;94177.59;;;26.14;33.78
65359;BME280;52491;45.900;6.346;2023-08-07T04:07:21;94170.63;;;26.12;34.24
65359;BME280;52491;45.900;6.346;2023-08-07T04:09:46;94178.63;;;26.12;34.11
65359;BME280;52491;45.900;6.346;2023-08-07T04:12:12;94184.78;;;26.13;33.88
65359;BME280;52491;45.900;6.346;2023-08-07T04:14:38;94182.09;;;26.13;33.85
65359;BME280;52491;45.900;6.346;2023-08-07T04:17:03;94188.28;;;26.14;34.06
65359;BME280;52491;45.900;6.346;2023-08-07T04:19:29;94182.94;;;26.14;33.74
65359;BME280;52491;45.900;6.346;2023-08-07T04:21:54;94192.78;;;26.13;33.78
65359;BME280;52491;45.900;6.346;2023-08-07T04:24:20;94200.00;;;26.12;33.91
65359;BME280;52491;45.900;6.346;2023-08-07T04:26:45;94198.97;;;26.14;33.80
65359;BME280;52491;45.900;6.346;2023-08-07T04:29:11;94198.13;;;26.13;33.68
65359;BME280;52491;45.900;6.346;2023-08-07T04:31:37;94204.31;;;26.14;33.87
65359;BME280;52491;45.900;6.346;2023-08-07T04:34:02;94201.63;;;26.14;34.00
65359;BME280;52491;45.900;6.346;2023-08-07T04:36:28;94204.31;;;26.14;33.62
65359;BME280;52491;45.900;6.346;2023-08-07T04:38:54;94196.28;;;26.14;33.94
65359;BME280;52491;45.900;6.346;2023-08-07T04:41:21;94200.81;;;26.13;33.91
65359;BME280;52491;45.900;6.346;2023-08-07T04:43:46;94197.88;;;26.15;33.45
65359;BME280;52491;45.900;6.346;2023-08-07T04:46:13;94195.47;;;26.13;33.56
65359;BME280;52491;45.900;6.346;2023-08-07T04:48:40;94200.81;;;26.13;33.63
65359;BME280;52491;45.900;6.346;2023-08-07T04:51:05;94196.28;;;26.14;33.56
65359;BME280;52491;45.900;6.346;2023-08-07T04:53:31;94197.34;;;26.12;33.96
65359;BME280;52491;45.900;6.346;2023-08-07T04:55:56;94195.47;;;26.13;33.97
65359;BME280;52491;45.900;6.346;2023-08-07T04:58:22;94195.75;;;26.11;33.83
65359;BME280;52491;45.900;6.346;2023-08-07T05:00:47;94200.00;;;26.12;33.75
65359;BME280;52491;45.900;6.346;2023-08-07T05:03:13;94198.13;;;26.13;33.95
65359;BME280;52491;45.900;6.346;2023-08-07T05:05:40;94199.50;;;26.10;33.58
65359;BME280;52491;45.900;6.346;2023-08-07T05:08:06;94196.53;;;26.12;33.92
65359;BME280;52491;45.900;6.346;2023-08-07T05:10:31;94188.53;;;26.12;33.60
65359;BME280;52491;45.900;6.346;2023-08-07T05:12:57;94185.06;;;26.11;33.61
65359;BME280;52491;45.900;6.346;2023-08-07T05:15:23;94182.38;;;26.11;33.61
65359;BME280;52491;45.900;6.346;2023-08-07T05:17:50;94188.81;;;26.10;34.05
65359;BME280;52491;45.900;6.346;2023-08-07T05:20:15;94194.16;;;26.10;33.59
65359;BME280;52491;45.900;6.346;2023-08-07T05:22:41;94189.59;;;26.11;33.53
65359;BME280;52491;45.900;6.346;2023-08-07T05:25:07;94179.72;;;26.11;33.50
65359;BME280;52491;45.900;6.346;2023-08-07T05:27:34;94193.06;;;26.11;33.80
65359;BME280;52491;45.900;6.346;2023-08-07T05:30:01;94195.75;;;26.11;33.73
65359;BME280;52491;45.900;6.346;2023-08-07T05:32:26;94190.13;;;26.13;33.74
65359;BME280;52491;45.900;6.346;2023-08-07T05:34:52;94193.06;;;26.11;33.53
65359;BME280;52491;45.900;6.346;2023-08-07T05:37:17;94194.94;;;26.11;33.80
65359;BME280;52491;45.900;6.346;2023-08-07T05:39:43;94194.16;;;26.10;33.74
65359;BME280;52491;45.900;6.346;2023-08-07T05:42:09;94199.50;;;26.10;33.37
65359;BME280;52491;45.900;6.346;2023-08-07T05:44:35;94193.31;;;26.10;33.90
65359;BME280;52491;45.900;6.346;2023-08-07T05:47:01;94196.00;;;26.10;33.58
65359;BME280;52491;45.900;6.346;2023-08-07T05:49:26;94200.53;;;26.09;33.77
65359;BME280;52491;45.900;6.346;2023-08-07T05:51:53;94196.53;;;26.07;33.67
65359;BME280;52491;45.900;6.346;2023-08-07T05:54:18;94198.16;;;26.08;33.68
65359;BME280;52491;45.900;6.346;2023-08-07T05:56:44;94199.19;;;26.07;33.55
65359;BME280;52491;45.900;6.346;2023-08-07T05:59:09;94200.00;;;26.07;33.87
65359;BME280;52491;45.900;6.346;2023-08-07T06:01:35;94198.16;;;26.08;33.53
65359;BME280;52491;45.900;6.346;2023-08-07T06:04:02;94196.28;;;26.08;33.43
65359;BME280;52491;45.900;6.346;2023-08-07T06:06:28;94194.66;;;26.07;33.52
65359;BME280;52491;45.900;6.346;2023-08-07T06:08:57;94192.81;;;26.08;33.29
65359;BME280;52491;45.900;6.346;2023-08-07T06:11:22;94191.72;;;26.09;33.69
65359;BME280;52491;45.900;6.346;2023-08-07T06:13:49;94191.72;;;26.09;33.47
65359;BME280;52491;45.900;6.346;2023-08-07T06:16:14;94191.72;;;26.09;33.70
65359;BME280;52491;45.900;6.346;2023-08-07T06:18:40;94189.84;;;26.09;33.48
65359;BME280;52491;45.900;6.346;2023-08-07T06:21:06;94193.59;;;26.08;33.51
65359;BME280;52491;45.900;6.346;2023-08-07T06:23:35;94199.75;;;26.09;33.68
65359;BME280;52491;45.900;6.346;2023-08-07T06:26:00;94198.16;;;26.08;33.48
65359;BME280;52491;45.900;6.346;2023-08-07T06:28:30;94196.28;;;26.08;33.45
65359;BME280;52491;45.900;6.346;2023-08-07T06:31:04;94192.81;;;26.08;33.52
65359;BME280;52491;45.900;6.346;2023-08-07T06:33:30;94197.31;;;26.07;33.76
65359;BME280;52491;45.900;6.346;2023-08-07T06:35:57;94205.34;;;26.07;33.71
65359;BME280;52491;45.900;6.346;2023-08-07T06:38:23;94207.22;;;26.07;33.62
65359;BME280;52491;45.900;6.346;2023-08-07T06:40:48;94209.88;;;26.07;33.52
65359;BME280;52491;45.900;6.346;2023-08-07T06:43:14;94209.88;;;26.07;33.70
65359;BME280;52491;45.900;6.346;2023-08-07T06:45:40;94207.22;;;26.07;33.45
65359;BME280;52491;45.900;6.346;2023-08-07T06:48:05;94217.91;;;26.07;33.48
65359;BME280;52491;45.900;6.346;2023-08-07T06:50:31;94210.69;;;26.07;33.79
65359;BME280;52491;45.900;6.346;2023-08-07T06:52:56;94204.53;;;26.07;33.71
65359;BME280;52491;45.900;6.346;2023-08-07T06:55:22;94213.34;;;26.07;33.56
65359;BME280;52491;45.900;6.346;2023-08-07T06:57:48;94217.91;;;26.07;33.70
65359;BME280;52491;45.900;6.346;2023-08-07T07:00:14;94213.63;;;26.06;33.42
65359;BME280;52491;45.900;6.346;2023-08-07T07:02:40;94216.31;;;26.06;33.85
65359;BME280;52491;45.900;6.346;2023-08-07T07:05:06;94222.44;;;26.06;33.60
65359;BME280;52491;45.900;6.346;2023-08-07T07:07:31;94220.56;;;26.07;33.87
65359;BME280;52491;45.900;6.346;2023-08-07T07:09:57;94217.91;;;26.07;33.60
65359;BME280;52491;45.900;6.346;2023-08-07T07:12:29;94219.25;;;26.09;33.51
65359;BME280;52491;45.900;6.346;2023-08-07T07:14:54;94223.78;;;26.09;33.78
65359;BME280;52491;45.900;6.346;2023-08-07T07:17:20;94222.19;;;26.08;33.69
65359;BME280;52491;45.900;6.346;2023-08-07T07:19:46;94220.31;;;26.08;33.79
65359;BME280;52491;45.900;6.346;2023-08-07T07:22:11;94224.59;;;26.09;33.69
65359;BME280;52491;45.900;6.346;2023-08-07T07:24:37;94216.56;;;26.09;33.66
65359;BME280;52491;45.900;6.346;2023-08-07T07:27:03;94208.56;;;26.09;33.68
65359;BME280;52491;45.900;6.346;2023-08-07T07:29:29;94208.56;;;26.09;33.67
65359;BME280;52491;45.900;6.346;2023-08-07T07:31:55;94213.09;;;26.09;33.58
65359;BME280;52491;45.900;6.346;2023-08-07T07:34:21;94210.44;;;26.09;33.84
65359;BME280;52491;45.900;6.346;2023-08-07T07:36:47;94212.31;;;26.08;33.73
65359;BME280;52491;45.900;6.346;2023-08-07T07:39:12;94212.03;;;26.10;33.55
65359;BME280;52491;45.900;6.346;2023-08-07T07:41:39;94215.53;;;26.10;34.05
65359;BME280;52491;45.900;6.346;2023-08-07T07:44:05;94212.84;;;26.10;33.40
65359;BME280;52491;45.900;6.346;2023-08-07T07:46:33;94216.56;;;26.09;33.30
65359;BME280;52491;45.900;6.346;2023-08-07T07:48:59;94209.63;;;26.08;32.91
65359;BME280;52491;45.900;6.346;2023-08-07T07:51:26;94211.50;;;26.08;32.93
65359;BME280;52491;45.900;6.346;2023-08-07T07:53:51;94203.75;;;26.06;32.63
65359;BME280;52491;45.900;6.346;2023-08-07T07:56:18;94208.28;;;26.06;32.90
65359;BME280;52491;45.900;6.346;2023-08-07T07:58:46;94208.84;;;26.08;32.87
65359;BME280;52491;45.900;6.346;2023-08-07T08:01:12;94202.41;;;26.09;32.86
65359;BME280;52491;45.900;6.346;2023-08-07T08:03:38;94203.22;;;26.09;33.19
65359;BME280;52491;45.900;6.346;2023-08-07T08:06:05;94196.00;;;26.10;33.02
65359;BME280;52491;45.900;6.346;2023-08-07T08:08:31;94199.50;;;26.10;32.84
65359;BME280;52491;45.900;6.346;2023-08-07T08:10:58;94197.63;;;26.11;32.90
65359;BME280;52491;45.900;6.346;2023-08-07T08:13:24;94188.81;;;26.10;32.91
65359;BME280;52491;45.900;6.346;2023-08-07T08:15:51;94186.13;;;26.10;32.96
65359;BME280;52491;45.900;6.346;2023-08-07T08:18:17;94187.97;;;26.10;33.23
65359;BME280;52491;45.900;6.346;2023-08-07T08:20:43;94178.91;;;26.11;33.31
65359;BME280;52491;45.900;6.346;2023-08-07T08:23:09;94177.03;;;26.11;33.34
65359;BME280;52491;45.900;6.346;2023-08-07T08:25:35;94175.16;;;26.12;33.05
65359;BME280;52491;45.900;6.346;2023-08-07T08:28:00;94174.09;;;26.13;33.21
65359;BME280;52491;45.900;6.346;2023-08-07T08:30:27;94176.50;;;26.15;33.05
65359;BME280;52491;45.900;6.346;2023-08-07T08:32:54;94173.84;;;26.15;33.33
65359;BME280;52491;45.900;6.346;2023-08-07T08:35:20;94173.03;;;26.14;33.06
65359;BME280;52491;45.900;6.346;2023-08-07T08:37:45;94169.56;;;26.14;33.30
65359;BME280;52491;45.900;6.346;2023-08-07T08:40:11;94172.25;;;26.14;32.71
65359;BME280;52491;45.900;6.346;2023-08-07T08:42:45;94167.16;;;26.12;32.51
65359;BME280;52491;45.900;6.346;2023-08-07T08:45:13;94167.16;;;26.12;32.33
65359;BME280;52491;45.900;6.346;2023-08-07T08:47:41;94169.03;;;26.11;32.20
65359;BME280;52491;45.900;6.346;2023-08-07T08:50:09;94172.25;;;26.14;32.05
65359;BME280;52491;45.900;6.346;2023-08-07T08:52:40;94175.97;;;26.12;32.39
65359;BME280;52491;45.900;6.346;2023-08-07T08:55:08;94172.50;;;26.12;32.17
65359;BME280;52491;45.900;6.346;2023-08-07T08:57:35;94172.50;;;26.12;32.06
65359;BME280;52491;45.900;6.346;2023-08-07T09:00:03;94166.34;;;26.11;31.54
65359;BME280;52491;45.900;6.346;2023-08-07T09:02:46;94173.00;;;26.04;31.81
65359;BME280;52491;45.900;6.346;2023-08-07T09:05:14;94173.31;;;26.02;31.76
65359;BME280;52491;45.900;6.346;2023-08-07T09:07:42;94174.34;;;26.01;31.85
65359;BME280;52491;45.900;6.346;2023-08-07T09:10:10;94169.81;;;26.02;32.01
65359;BME280;52491;45.900;6.346;2023-08-07T09:12:54;94175.97;;;26.02;31.85
65359;BME280;52491;45.900;6.346;2023-08-07T09:15:23;94175.44;;;26.00;31.32
65359;BME280;52491;45.900;6.346;2023-08-07T09:17:51;94178.91;;;26.01;31.67
65359;BME280;52491;45.900;6.346;2023-08-07T09:20:18;94182.38;;;26.01;31.49
65359;BME280;52491;45.900;6.346;2023-08-07T09:22:44;94177.03;;;26.01;31.17
65359;BME280;52491;45.900;6.346;2023-08-07T09:25:11;94177.81;;;26.02;31.24
65359;BME280;52491;45.900;6.346;2023-08-07T09:27:38;94171.69;;;26.01;31.12
65359;BME280;52491;45.900;6.346;2023-08-07T09:30:06;94172.47;;;26.02;31.40
65359;BME280;52491;45.900;6.346;2023-08-07T09:32:36;94175.97;;;26.02;30.79
65359;BME280;52491;45.900;6.346;2023-08-07T09:35:03;94175.97;;;26.02;30.85
65359;BME280;52491;45.900;6.346;2023-08-07T09:37:36;94175.97;;;26.02;30.75
65359;BME280;52491;45.900;6.346;2023-08-07T09:40:02;94167.97;;;26.02;30.65
65359;BME280;52491;45.900;6.346;2023-08-07T09:42:31;94169.81;;;26.02;30.72
65359;BME280;52491;45.900;6.346;2023-08-07T09:45:01;94172.47;;;26.02;30.61
65359;BME280;52491;45.900;6.346;2023-08-07T09:47:28;94174.34;;;26.01;30.47
65359;BME280;52491;45.900;6.346;2023-08-07T09:49:55;94168.75;;;26.03;30.32
65359;BME280;52491;45.900;6.346;2023-08-07T09:52:22;94171.44;;;26.03;29.63
65359;BME280;52491;45.900;6.346;2023-08-07T09:54:54;94180.50;;;26.02;29.57
65359;BME280;52491;45.900;6.346;2023-08-07T09:57:21;94181.84;;;25.99;29.64
65359;BME280;52491;45.900;6.346;2023-08-07T09:59:49;94182.34;;;25.96;29.02
65359;BME280;52491;45.900;6.346;2023-08-07T10:02:18;94184.22;;;25.90;28.01
65359;BME280;52491;45.900;6.346;2023-08-07T10:04:47;94174.06;;;25.87;27.85
65359;BME280;52491;45.900;6.346;2023-08-07T10:07:14;94167.66;;;25.88;28.13
65359;BME280;52491;45.900;6.346;2023-08-07T10:09:42;94171.94;;;25.89;28.06
65359;BME280;52491;45.900;6.346;2023-08-07T10:12:10;94169.00;;;25.91;27.89
65359;BME280;52491;45.900;6.346;2023-08-07T10:14:38;94159.91;;;25.92;28.43
65359;BME280;52491;45.900;6.346;2023-08-07T10:17:07;94165.00;;;25.94;28.30
65359;BME280;52491;45.900;6.346;2023-08-07T10:19:34;94174.63;;;25.95;28.17
65359;BME280;52491;45.900;6.346;2023-08-07T10:22:02;94178.09;;;26.00;28.04
65359;BME280;52491;45.900;6.346;2023-08-07T10:24:30;94179.19;;;25.99;28.34
65359;BME280;52491;45.900;6.346;2023-08-07T10:26:58;94180.78;;;26.00;28.14
65359;BME280;52491;45.900;6.346;2023-08-07T10:29:25;94174.34;;;26.01;27.87
65359;BME280;52491;45.900;6.346;2023-08-07T10:31:55;94171.69;;;26.01;28.00
65359;BME280;52491;45.900;6.346;2023-08-07T10:34:22;94166.34;;;26.01;28.10
65359;BME280;52491;45.900;6.346;2023-08-07T10:36:49;94167.97;;;26.02;28.18
65359;BME280;52491;45.900;6.346;2023-08-07T10:39:15;94167.69;;;26.04;28.30
65359;BME280;52491;45.900;6.346;2023-08-07T10:41:48;94169.56;;;26.03;28.76
65359;BME280;52491;45.900;6.346;2023-08-07T10:44:22;94179.97;;;26.05;28.40
65359;BME280;52491;45.900;6.346;2023-08-07T10:46:53;94181.84;;;26.04;28.87
65359;BME280;52491;45.900;6.346;2023-08-07T10:49:38;94178.09;;;26.05;28.54
65359;BME280;52491;45.900;6.346;2023-08-07T10:54:46;94161.28;;;26.05;28.76
65359;BME280;52491;45.900;6.346;2023-08-07T10:57:13;94173.81;;;26.04;29.07
65359;BME280;52491;45.900;6.346;2023-08-07T10:59:44;94174.34;;;26.06;29.23
65359;BME280;52491;45.900;6.346;2023-08-07T11:02:12;94170.88;;;26.06;29.00
65359;BME280;52491;45.900;6.346;2023-08-07T11:04:38;94164.75;;;26.05;28.86
65359;BME280;52491;45.900;6.346;2023-08-07T11:07:04;94155.66;;;26.06;28.75
65359;BME280;52491;45.900;6.346;2023-08-07T11:09:30;94162.59;;;26.07;29.16
65359;BME280;52491;45.900;6.346;2023-08-07T11:11:56;94158.31;;;26.06;29.02
65359;BME280;52491;45.900;6.346;2023-08-07T11:14:22;94161.00;;;26.06;28.92
65359;BME280;52491;45.900;6.346;2023-08-07T11:16:49;94153.78;;;26.07;29.30
65359;BME280;52491;45.900;6.346;2023-08-07T11:19:17;94154.56;;;26.07;29.07
65359;BME280;52491;45.900;6.346;2023-08-07T11:21:45;94148.44;;;26.07;29.13
65359;BME280;52491;45.900;6.346;2023-08-07T11:24:16;94154.84;;;26.06;29.24
65359;BME280;52491;45.900;6.346;2023-08-07T11:26:45;94153.53;;;26.03;28.82
65359;BME280;52491;45.900;6.346;2023-08-07T11:29:17;94161.53;;;26.03;28.47
65359;BME280;52491;45.900;6.346;2023-08-07T11:31:44;94156.19;;;26.03;28.51
65359;BME280;52491;45.900;6.346;2023-08-07T11:34:11;94146.28;;;26.04;28.14
65359;BME280;52491;45.900;6.346;2023-08-07T11:36:41;94154.06;;;26.05;28.04
65359;BME280;52491;45.900;6.346;2023-08-07T11:39:07;94147.09;;;26.04;28.04
65359;BME280;52491;45.900;6.346;2023-08-07T11:41:34;94148.16;;;26.03;28.08
65359;BME280;52491;45.900;6.346;2023-08-07T11:44:00;94152.44;;;26.04;27.97
65359;BME280;52491;45.900;6.346;2023-08-07T11:46:26;94149.75;;;26.04;27.38
65359;BME280;52491;45.900;6.346;2023-08-07T11:48:52;94153.25;;;26.05;27.55
65359;BME280;52491;45.900;6.346;2023-08-07T11:51:20;94143.38;;;26.05;28.23
65359;BME280;52491;45.900;6.346;2023-08-07T11:53:47;94138.81;;;26.06;28.29
65359;BME280;52491;45.900;6.346;2023-08-07T11:56:14;94142.28;;;26.06;28.42
65359;BME280;52491;45.900;6.346;2023-08-07T11:58:42;94127.88;;;26.02;29.00
65359;BME280;52491;45.900;6.346;2023-08-07T12:01:17;94120.91;;;25.96;28.94
65359;BME280;52491;45.900;6.346;2023-08-07T12:06:37;94132.16;;;26.08;29.42
65359;BME280;52491;45.900;6.346;2023-08-07T12:09:07;94134.03;;;26.08;29.48
65359;BME280;52491;45.900;6.346;2023-08-07T12:11:38;94138.28;;;26.09;29.44
65359;BME280;52491;45.900;6.346;2023-08-07T12:14:05;94132.69;;;26.10;30.01
65359;BME280;52491;45.900;6.346;2023-08-07T12:16:36;94134.00;;;26.13;30.15
65359;BME280;52491;45.900;6.346;2023-08-07T12:19:04;94136.69;;;26.13;30.21
65359;BME280;52491;45.900;6.346;2023-08-07T12:21:31;94140.19;;;26.14;30.38
65359;BME280;52491;45.900;6.346;2023-08-07T12:23:59;94135.63;;;26.14;30.62
65359;BME280;52491;45.900;6.346;2023-08-07T12:26:26;94129.47;;;26.14;30.58
65359;BME280;52491;45.900;6.346;2023-08-07T12:28:53;94139.88;;;26.15;30.41
65359;BME280;52491;45.900;6.346;2023-08-07T12:31:19;94139.63;;;26.22;30.96
65359;BME280;52491;45.900;6.346;2023-08-07T12:33:46;94141.78;;;26.25;30.65
65359;BME280;52491;45.900;6.346;2023-08-07T12:36:13;94142.56;;;26.25;30.91
65359;BME280;52491;45.900;6.346;2023-08-07T12:38:41;94132.44;;;26.27;30.49
65359;BME280;52491;45.900;6.346;2023-08-07T12:41:07;94135.91;;;26.28;30.10
65359;BME280;52491;45.900;6.346;2023-08-07T12:43:34;94129.75;;;26.27;30.41
65359;BME280;52491;45.900;6.346;2023-08-07T12:46:00;94129.75;;;26.27;29.82
65359;BME280;52491;45.900;6.346;2023-08-07T12:48:27;94136.94;;;26.27;29.88
65359;BME280;52491;45.900;6.346;2023-08-07T12:50:54;94128.94;;;26.27;30.08
65359;BME280;52491;45.900;6.346;2023-08-07T12:53:19;94139.63;;;26.27;30.00
65359;BME280;52491;45.900;6.346;2023-08-07T12:55:45;94131.59;;;26.27;30.22
65359;BME280;52491;45.900;6.346;2023-08-07T12:58:11;94139.38;;;26.28;30.48
65359;BME280;52491;45.900;6.346;2023-08-07T13:00:36;94130.25;;;26.29;30.36
65359;BME280;52491;45.900;6.346;2023-08-07T13:03:02;94127.34;;;26.31;30.49
65359;BME280;52491;45.900;6.346;2023-08-07T13:05:28;94123.59;;;26.32;30.62
65359;BME280;52491;45.900;6.346;2023-08-07T13:07:55;94109.41;;;26.31;30.75